Time;durP1;ratioP1;P1;durP2;ratioP2;P2;SDS_P1;SDS_P2;PMS_P1;PMS_P2;Temp;Humidity;BMP_temperature;BMP_pressure;BME280_temperature;BME280_humidity;BME280_pressure;Samples;Min_cycle;Max_cycle;Signal;HPM_P1;HPM_P2
2024/03/30 00:01:57;;;;;;;26.60;4.60;;;10.90;98.00;;;;;;5010673;28;20485;-66
2024/03/30 00:04:28;;;;;;;32.77;5.10;;;10.80;98.00;;;;;;5011954;28;20859;-66
2024/03/30 00:06:54;;;;;;;16.53;4.80;;;10.90;98.00;;;;;;5011793;28;20472;-66
2024/03/30 00:09:21;;;;;;;36.93;5.40;;;10.90;98.00;;;;;;5012078;28;20460;-66
2024/03/30 00:11:47;;;;;;;34.07;5.77;;;11.00;98.00;;;;;;5011851;28;20456;-66
2024/03/30 00:14:15;;;;;;;24.37;5.70;;;10.90;98.00;;;;;;5010821;28;20477;-66
2024/03/30 00:16:44;;;;;;;27.60;5.63;;;10.90;98.00;;;;;;5011665;28;20942;-66
2024/03/30 00:19:13;;;;;;;25.93;6.00;;;10.90;98.00;;;;;;5011963;28;20559;-66
2024/03/30 00:21:40;;;;;;;23.13;5.47;;;10.90;98.00;;;;;;5011650;28;20543;-66
2024/03/30 00:24:07;;;;;;;20.10;4.97;;;10.90;98.00;;;;;;5012020;28;20535;-66
2024/03/30 00:26:35;;;;;;;24.03;5.23;;;10.90;98.00;;;;;;5011732;28;20471;-66
2024/03/30 00:29:02;;;;;;;28.50;5.63;;;11.00;98.00;;;;;;5011852;28;20470;-66
2024/03/30 00:31:31;;;;;;;30.53;5.40;;;11.00;98.00;;;;;;5011695;28;20448;-66
2024/03/30 00:33:59;;;;;;;22.50;4.43;;;10.90;98.00;;;;;;5011849;28;20465;-66
2024/03/30 00:36:25;;;;;;;22.83;4.43;;;10.90;98.00;;;;;;5011777;28;20458;-66
2024/03/30 00:38:52;;;;;;;23.80;5.43;;;10.80;98.00;;;;;;5011777;28;20529;-66
2024/03/30 00:41:18;;;;;;;33.73;5.20;;;10.80;98.00;;;;;;5011611;28;20483;-66
2024/03/30 00:43:47;;;;;;;36.73;5.67;;;10.70;98.00;;;;;;5011882;28;20523;-66
2024/03/30 00:46:14;;;;;;;44.00;5.60;;;10.80;98.00;;;;;;5015238;28;20456;-66
2024/03/30 00:48:42;;;;;;;27.40;4.80;;;10.70;98.00;;;;;;5015133;28;20450;-66
2024/03/30 00:51:10;;;;;;;34.77;4.80;;;10.80;98.00;;;;;;5015171;28;20472;-66
2024/03/30 00:53:36;;;;;;;30.30;5.07;;;10.80;98.00;;;;;;5015220;28;20452;-66
2024/03/30 00:56:05;;;;;;;30.37;5.43;;;10.70;98.00;;;;;;5014880;28;20463;-66
2024/03/30 00:58:31;;;;;;;41.97;5.37;;;10.70;98.00;;;;;;5014083;28;20456;-66
2024/03/30 01:00:58;;;;;;;27.77;4.83;;;10.60;98.00;;;;;;5014998;28;20573;-66
2024/03/30 01:03:24;;;;;;;37.03;6.47;;;10.70;98.00;;;;;;5015070;28;21166;-66
2024/03/30 01:05:51;;;;;;;32.50;4.83;;;10.60;98.00;;;;;;5014763;28;20460;-66
2024/03/30 01:08:20;;;;;;;53.20;5.57;;;10.60;98.00;;;;;;5015010;28;20457;-66
2024/03/30 01:10:47;;;;;;;56.03;5.90;;;10.50;98.00;;;;;;5014956;28;20475;-66
2024/03/30 01:13:14;;;;;;;53.47;6.30;;;10.40;98.00;;;;;;5014819;28;20456;-66
2024/03/30 01:15:42;;;;;;;42.53;5.00;;;10.30;98.00;;;;;;5014214;28;20546;-66
2024/03/30 01:18:10;;;;;;;59.90;6.20;;;10.40;98.00;;;;;;5013648;28;20463;-66
2024/03/30 01:20:38;;;;;;;36.63;5.50;;;10.30;98.00;;;;;;5014033;28;20484;-66
2024/03/30 01:23:06;;;;;;;51.80;5.67;;;10.40;98.00;;;;;;5014319;28;20463;-66
2024/03/30 01:25:36;;;;;;;35.23;5.43;;;10.50;98.00;;;;;;5014170;28;20472;-66
2024/03/30 01:28:03;;;;;;;46.90;5.57;;;10.40;98.00;;;;;;5014598;28;20455;-66
2024/03/30 01:30:31;;;;;;;37.97;4.50;;;10.40;98.00;;;;;;5014431;28;20459;-66
2024/03/30 01:32:57;;;;;;;35.07;4.77;;;10.30;98.00;;;;;;5014717;28;20515;-66
2024/03/30 01:35:25;;;;;;;41.30;5.10;;;10.20;98.00;;;;;;5014077;28;20494;-66
2024/03/30 01:37:51;;;;;;;53.97;6.53;;;10.30;98.00;;;;;;5014105;28;21128;-66
2024/03/30 01:40:19;;;;;;;52.43;4.87;;;10.40;98.00;;;;;;5014226;28;20954;-66
2024/03/30 01:42:47;;;;;;;39.43;5.80;;;10.30;98.00;;;;;;5014240;28;20492;-66
2024/03/30 01:45:14;;;;;;;30.27;4.87;;;10.40;98.00;;;;;;5014215;28;20472;-66
2024/03/30 01:47:40;;;;;;;45.33;5.10;;;10.30;98.00;;;;;;5013532;28;20498;-66
2024/03/30 01:50:08;;;;;;;33.00;4.60;;;10.40;98.00;;;;;;5014164;28;20518;-66
2024/03/30 01:52:36;;;;;;;30.77;5.00;;;10.30;98.00;;;;;;5013957;28;20469;-66
2024/03/30 01:55:04;;;;;;;43.07;4.80;;;10.20;98.00;;;;;;5013722;28;20467;-66
2024/03/30 01:57:32;;;;;;;24.77;4.27;;;10.30;98.00;;;;;;5013157;28;20456;-66
2024/03/30 02:00:00;;;;;;;32.63;6.30;;;10.30;98.00;;;;;;5013836;28;20469;-66
2024/03/30 02:02:27;;;;;;;39.63;5.90;;;10.30;98.00;;;;;;5013692;28;20486;-66
2024/03/30 02:04:55;;;;;;;43.33;5.43;;;10.30;98.00;;;;;;5013637;28;20504;-66
2024/03/30 02:07:22;;;;;;;33.07;4.17;;;10.30;98.00;;;;;;5013452;28;20454;-66
2024/03/30 02:09:49;;;;;;;24.73;4.27;;;10.30;98.00;;;;;;5013558;28;20470;-66
2024/03/30 02:12:15;;;;;;;37.37;4.80;;;10.40;98.00;;;;;;5013585;28;20957;-66
2024/03/30 02:14:44;;;;;;;27.33;3.57;;;10.60;98.00;;;;;;5013496;28;20456;-66
2024/03/30 02:17:12;;;;;;;44.73;4.20;;;10.80;98.00;;;;;;5013249;28;20451;-66
2024/03/30 02:19:44;;;;;;;30.17;4.40;;;11.00;98.00;;;;;;5013313;28;20491;-66
2024/03/30 02:22:11;;;;;;;27.33;3.70;;;11.30;98.00;;;;;;5013454;28;20947;-66
2024/03/30 02:24:39;;;;;;;45.43;4.30;;;11.40;98.00;;;;;;5013475;28;20453;-66
2024/03/30 02:27:09;;;;;;;25.80;4.00;;;11.50;98.00;;;;;;5013333;28;20454;-66
2024/03/30 02:29:38;;;;;;;45.57;3.70;;;11.60;98.00;;;;;;5013168;28;20468;-66
2024/03/30 02:32:06;;;;;;;23.60;3.70;;;11.70;98.00;;;;;;5013371;28;20808;-66
2024/03/30 02:34:33;;;;;;;25.23;3.93;;;11.70;98.00;;;;;;5013374;28;21182;-66
2024/03/30 02:36:59;;;;;;;29.33;3.63;;;11.80;98.00;;;;;;5013131;28;20460;-66
2024/03/30 02:39:26;;;;;;;30.00;4.10;;;11.70;98.00;;;;;;5013345;28;20475;-66
2024/03/30 02:41:54;;;;;;;36.80;5.00;;;11.90;98.00;;;;;;5013142;28;20585;-66
2024/03/30 02:44:21;;;;;;;17.17;3.37;;;11.80;98.00;;;;;;5013274;28;20476;-66
2024/03/30 02:46:47;;;;;;;34.43;4.30;;;11.80;98.00;;;;;;5013046;28;20461;-66
2024/03/30 02:49:15;;;;;;;31.67;3.93;;;11.70;98.00;;;;;;5012954;28;20476;-66
2024/03/30 02:51:41;;;;;;;21.07;3.80;;;11.60;98.00;;;;;;5013073;28;20924;-66
2024/03/30 02:54:08;;;;;;;29.23;3.37;;;11.50;98.00;;;;;;5013156;28;20822;-66
2024/03/30 02:56:34;;;;;;;34.43;3.93;;;11.40;98.00;;;;;;5012317;28;20457;-66
2024/03/30 02:59:03;;;;;;;18.27;3.00;;;11.50;98.00;;;;;;5011882;28;21126;-66
2024/03/30 03:01:29;;;;;;;22.23;3.53;;;11.80;98.00;;;;;;5012025;28;20493;-66
2024/03/30 03:03:56;;;;;;;29.77;3.90;;;12.00;98.00;;;;;;5012161;28;20472;-66
2024/03/30 03:06:22;;;;;;;38.53;4.63;;;12.20;98.00;;;;;;5012795;28;20454;-66
2024/03/30 03:08:49;;;;;;;22.50;3.20;;;12.20;98.00;;;;;;5012374;28;20466;-66
2024/03/30 03:11:15;;;;;;;33.50;4.70;;;12.10;98.00;;;;;;5012663;28;20449;-66
2024/03/30 03:13:42;;;;;;;25.80;4.00;;;12.00;98.00;;;;;;5012923;28;21011;-66
2024/03/30 03:16:10;;;;;;;30.13;5.00;;;11.80;98.00;;;;;;5012856;28;20948;-66
2024/03/30 03:18:37;;;;;;;27.67;3.77;;;11.70;98.00;;;;;;5012758;28;20470;-66
2024/03/30 03:21:03;;;;;;;34.17;4.00;;;11.70;98.00;;;;;;5012222;28;21024;-66
2024/03/30 03:23:32;;;;;;;31.83;4.77;;;11.50;98.00;;;;;;5012497;28;20471;-66
2024/03/30 03:25:58;;;;;;;36.60;5.13;;;11.50;98.00;;;;;;5012147;28;20464;-66
2024/03/30 03:28:25;;;;;;;25.07;3.83;;;11.50;98.00;;;;;;5012344;28;20468;-66
2024/03/30 03:30:52;;;;;;;35.17;4.83;;;11.50;98.00;;;;;;5012409;28;20519;-66
2024/03/30 03:33:20;;;;;;;14.20;3.53;;;11.50;98.00;;;;;;5012377;28;20618;-66
2024/03/30 03:35:46;;;;;;;28.00;4.40;;;11.30;98.00;;;;;;5012233;28;20455;-66
2024/03/30 03:38:14;;;;;;;21.07;3.70;;;11.20;98.00;;;;;;5012193;28;20882;-66
2024/03/30 03:40:40;;;;;;;39.13;4.57;;;11.20;98.00;;;;;;5012202;28;20453;-66
2024/03/30 03:43:07;;;;;;;22.83;3.83;;;11.30;98.00;;;;;;5012375;28;20801;-66
2024/03/30 03:45:36;;;;;;;26.63;3.10;;;11.20;98.00;;;;;;5012172;28;20508;-66
2024/03/30 03:48:03;;;;;;;32.50;3.43;;;11.20;98.00;;;;;;5012050;28;20470;-66
2024/03/30 03:50:30;;;;;;;21.13;2.93;;;11.30;98.00;;;;;;5012002;28;20449;-66
2024/03/30 03:52:57;;;;;;;12.70;2.73;;;11.30;98.00;;;;;;5011898;28;20468;-66
2024/03/30 03:55:23;;;;;;;21.57;3.10;;;11.30;98.00;;;;;;5012184;28;20465;-66
2024/03/30 03:57:50;;;;;;;12.03;2.67;;;11.30;98.00;;;;;;5012015;28;21025;-66
2024/03/30 04:00:17;;;;;;;16.90;3.00;;;11.30;98.00;;;;;;5011924;28;20936;-66
2024/03/30 04:02:44;;;;;;;14.63;3.20;;;11.30;98.00;;;;;;5011798;28;21029;-66
2024/03/30 04:05:10;;;;;;;31.10;3.97;;;11.40;98.00;;;;;;5012248;28;20464;-66
2024/03/30 04:07:38;;;;;;;16.30;2.37;;;11.50;98.00;;;;;;5011976;28;20887;-66
2024/03/30 04:10:07;;;;;;;18.70;2.77;;;11.40;98.00;;;;;;5011875;28;20460;-66
2024/03/30 04:12:34;;;;;;;12.03;2.70;;;11.70;98.00;;;;;;5011796;28;20468;-66
2024/03/30 04:15:00;;;;;;;24.87;3.30;;;11.90;98.00;;;;;;5012068;28;20460;-66
2024/03/30 04:17:27;;;;;;;25.80;2.57;;;12.20;98.00;;;;;;5011579;28;20489;-66
2024/03/30 04:19:53;;;;;;;17.80;3.37;;;12.40;98.00;;;;;;5013693;28;20466;-66
2024/03/30 04:22:21;;;;;;;19.13;2.30;;;12.60;98.00;;;;;;5015602;28;20489;-66
2024/03/30 04:24:48;;;;;;;13.07;2.60;;;12.80;98.00;;;;;;5015758;28;20469;-66
2024/03/30 04:27:16;;;;;;;14.43;3.23;;;13.00;98.00;;;;;;5014294;28;20493;-66
2024/03/30 04:29:43;;;;;;;14.63;2.93;;;13.20;98.00;;;;;;5015610;28;20455;-66
2024/03/30 04:32:10;;;;;;;21.70;2.67;;;13.20;98.00;;;;;;5014066;28;20473;-66
2024/03/30 04:34:37;;;;;;;6.73;2.17;;;13.20;98.00;;;;;;5015408;28;20454;-66
2024/03/30 04:37:04;;;;;;;11.90;2.67;;;13.20;98.00;;;;;;5015587;28;20497;-66
2024/03/30 04:39:32;;;;;;;15.30;2.27;;;13.10;98.00;;;;;;5015428;28;20477;-66
2024/03/30 04:42:01;;;;;;;9.93;2.73;;;13.00;98.00;;;;;;5015319;28;20491;-66
2024/03/30 04:44:27;;;;;;;16.03;2.57;;;12.90;98.00;;;;;;5015496;28;20562;-66
2024/03/30 04:46:54;;;;;;;26.07;2.37;;;12.90;98.00;;;;;;5015337;28;20469;-66
2024/03/30 04:49:20;;;;;;;7.40;2.20;;;12.80;98.00;;;;;;5015287;28;20459;-66
2024/03/30 04:51:47;;;;;;;15.73;3.13;;;12.80;98.00;;;;;;5015031;28;20477;-66
2024/03/30 04:54:13;;;;;;;11.30;1.80;;;12.90;98.00;;;;;;5015456;28;20453;-66
2024/03/30 04:56:40;;;;;;;9.07;2.10;;;12.90;98.00;;;;;;5015260;28;20485;-66
2024/03/30 04:59:08;;;;;;;18.53;2.90;;;12.80;98.00;;;;;;5015384;28;20488;-66
2024/03/30 05:01:35;;;;;;;16.80;3.13;;;12.80;98.00;;;;;;5015037;28;20573;-66
2024/03/30 05:04:02;;;;;;;20.73;2.93;;;12.80;98.00;;;;;;5015596;28;20451;-66
2024/03/30 05:06:29;;;;;;;21.80;3.50;;;12.60;98.00;;;;;;5015102;28;20469;-66
2024/03/30 05:08:55;;;;;;;26.03;3.50;;;12.50;98.00;;;;;;5015036;28;20470;-66
2024/03/30 05:11:22;;;;;;;26.57;3.77;;;12.30;98.00;;;;;;5013913;28;20861;-66
2024/03/30 05:13:48;;;;;;;16.37;3.10;;;12.00;98.00;;;;;;5014962;28;20960;-66
2024/03/30 05:16:17;;;;;;;26.73;3.40;;;11.80;98.00;;;;;;5014435;28;20846;-66
2024/03/30 05:18:43;;;;;;;19.03;3.57;;;11.70;98.00;;;;;;5014739;28;20458;-66
2024/03/30 05:21:09;;;;;;;23.30;3.70;;;11.50;98.00;;;;;;5014631;28;21096;-66
2024/03/30 05:23:38;;;;;;;22.97;3.53;;;11.40;98.00;;;;;;5014502;28;20902;-66
2024/03/30 05:26:05;;;;;;;17.50;3.00;;;11.40;98.00;;;;;;5014462;28;20459;-66
2024/03/30 05:28:34;;;;;;;13.17;2.30;;;11.30;98.00;;;;;;5014135;28;20472;-66
2024/03/30 05:31:04;;;;;;;15.27;2.10;;;11.30;98.00;;;;;;5014307;28;20452;-67
2024/03/30 05:33:33;;;;;;;14.23;2.87;;;11.30;98.00;;;;;;5014258;28;20864;-67
2024/03/30 05:36:00;;;;;;;12.07;2.63;;;11.50;98.00;;;;;;5014177;28;20461;-66
2024/03/30 05:38:27;;;;;;;15.43;3.30;;;11.50;98.00;;;;;;5014026;28;20465;-66
2024/03/30 05:40:54;;;;;;;12.13;2.93;;;11.40;98.00;;;;;;5014126;28;20505;-66
2024/03/30 05:43:23;;;;;;;27.03;3.67;;;11.30;98.00;;;;;;5014085;28;20908;-66
2024/03/30 05:45:56;;;;;;;17.03;3.97;;;11.20;98.00;;;;;;5013927;28;20819;-66
2024/03/30 05:48:23;;;;;;;16.77;3.37;;;11.10;98.00;;;;;;5013937;28;21038;-66
2024/03/30 05:50:51;;;;;;;18.27;3.47;;;11.10;98.00;;;;;;5014004;28;20887;-66
2024/03/30 05:53:18;;;;;;;19.50;3.33;;;11.30;98.00;;;;;;5013982;28;20485;-66
2024/03/30 05:55:45;;;;;;;24.97;3.57;;;11.30;98.00;;;;;;5013869;28;20791;-66
2024/03/30 05:58:14;;;;;;;13.80;2.43;;;11.30;98.00;;;;;;5013854;28;21027;-66
2024/03/30 06:00:41;;;;;;;16.50;3.30;;;11.20;98.00;;;;;;5013927;28;20506;-66
2024/03/30 06:03:08;;;;;;;14.00;2.70;;;11.30;98.00;;;;;;5013723;28;20495;-66
2024/03/30 06:05:34;;;;;;;15.60;2.80;;;11.30;98.00;;;;;;5013926;28;20938;-66
2024/03/30 06:08:03;;;;;;;23.50;3.07;;;11.40;98.00;;;;;;5012548;28;20548;-66
2024/03/30 06:10:30;;;;;;;14.23;3.00;;;11.50;98.00;;;;;;5013890;28;20456;-66
2024/03/30 06:12:58;;;;;;;15.67;2.63;;;11.70;98.00;;;;;;5013744;28;20473;-66
2024/03/30 06:15:25;;;;;;;22.83;2.73;;;11.80;98.00;;;;;;5013602;28;20876;-66
2024/03/30 06:17:51;;;;;;;12.03;3.20;;;11.90;98.00;;;;;;5013545;28;20925;-66
2024/03/30 06:20:18;;;;;;;17.70;3.33;;;11.90;98.00;;;;;;5013612;28;20555;-66
2024/03/30 06:22:45;;;;;;;25.70;4.40;;;12.10;98.00;;;;;;5013351;28;20493;-66
2024/03/30 06:25:14;;;;;;;11.63;3.20;;;12.10;98.00;;;;;;5013566;28;20469;-66
2024/03/30 06:27:40;;;;;;;22.67;3.20;;;12.10;98.00;;;;;;5013382;28;20458;-66
2024/03/30 06:30:08;;;;;;;12.93;3.43;;;12.10;98.00;;;;;;5013315;28;20972;-66
2024/03/30 06:32:34;;;;;;;24.83;4.43;;;12.10;98.00;;;;;;5013311;28;20462;-66
2024/03/30 06:35:02;;;;;;;22.50;4.33;;;12.30;98.00;;;;;;5013155;28;20467;-66
2024/03/30 06:37:28;;;;;;;26.83;4.23;;;12.50;98.00;;;;;;5013057;28;20976;-66
2024/03/30 06:45:25;;;;;;;23.33;3.77;;;12.50;98.00;;;;;;5013418;28;20463;-66
2024/03/30 06:47:53;;;;;;;23.97;3.77;;;12.60;98.00;;;;;;5013003;28;20477;-66
2024/03/30 06:50:20;;;;;;;18.10;4.00;;;12.60;98.00;;;;;;5013272;28;20446;-66
2024/03/30 06:52:47;;;;;;;15.80;3.30;;;12.60;98.00;;;;;;5013245;28;20450;-66
2024/03/30 06:55:13;;;;;;;23.40;4.37;;;12.70;98.00;;;;;;5013279;28;20991;-66
2024/03/30 06:57:41;;;;;;;24.73;4.00;;;12.90;98.00;;;;;;5012817;28;20469;-66
2024/03/30 07:00:09;;;;;;;18.50;3.40;;;13.00;98.00;;;;;;5012885;28;20461;-62
2024/03/30 07:02:35;;;;;;;19.13;4.87;;;13.00;98.00;;;;;;5012966;28;21053;-63
2024/03/30 07:05:03;;;;;;;16.43;3.40;;;13.10;98.00;;;;;;5012924;28;20459;-63
2024/03/30 07:07:29;;;;;;;27.00;4.67;;;13.20;98.00;;;;;;5012321;28;20480;-63
2024/03/30 07:09:56;;;;;;;27.33;4.23;;;13.20;98.00;;;;;;5011514;28;20490;-63
2024/03/30 07:12:22;;;;;;;18.93;3.60;;;13.30;98.00;;;;;;5012696;28;20461;-63
2024/03/30 07:14:50;;;;;;;19.90;3.70;;;13.40;98.00;;;;;;5012482;28;20478;-63
2024/03/30 07:17:16;;;;;;;29.20;4.73;;;13.50;98.00;;;;;;5012290;28;20460;-63
2024/03/30 07:19:43;;;;;;;25.53;5.37;;;13.60;98.00;;;;;;5012101;28;20485;-63
2024/03/30 07:22:09;;;;;;;15.03;4.07;;;13.70;98.00;;;;;;5012353;28;20486;-63
2024/03/30 07:24:37;;;;;;;23.90;4.20;;;13.90;98.00;;;;;;5011219;28;20462;-63
2024/03/30 07:27:03;;;;;;;20.70;3.93;;;14.00;98.00;;;;;;5011453;28;20455;-63
2024/03/30 07:29:30;;;;;;;26.90;3.80;;;14.10;98.00;;;;;;5011731;28;20541;-63
2024/03/30 07:32:00;;;;;;;17.67;3.87;;;14.20;98.00;;;;;;5011950;28;20463;-63
2024/03/30 07:34:27;;;;;;;17.33;3.70;;;14.40;98.00;;;;;;5011969;28;20491;-63
2024/03/30 07:36:53;;;;;;;18.00;3.83;;;14.50;98.00;;;;;;5012039;28;20444;-63
2024/03/30 07:39:21;;;;;;;26.40;6.47;;;14.50;98.00;;;;;;5012206;28;21003;-63
2024/03/30 07:41:47;;;;;;;20.53;3.80;;;14.60;98.00;;;;;;5011898;28;20579;-63
2024/03/30 07:44:17;;;;;;;14.70;3.40;;;14.60;98.00;;;;;;5012197;28;20478;-63
2024/03/30 07:46:43;;;;;;;24.83;3.90;;;14.60;98.00;;;;;;5011382;28;20454;-63
2024/03/30 07:49:12;;;;;;;19.27;3.80;;;14.60;98.00;;;;;;5012298;28;20480;-63
2024/03/30 07:51:38;;;;;;;17.87;3.40;;;14.60;98.00;;;;;;5012142;28;20462;-63
2024/03/30 07:54:05;;;;;;;20.30;5.07;;;14.70;98.00;;;;;;5013199;28;20460;-63
2024/03/30 07:56:31;;;;;;;25.00;3.83;;;14.80;98.00;;;;;;5016012;28;20456;-63
2024/03/30 07:58:58;;;;;;;24.47;4.40;;;14.80;98.00;;;;;;5014967;28;20518;-63
2024/03/30 08:01:27;;;;;;;35.07;3.97;;;15.00;98.00;;;;;;5016147;28;20544;-63
2024/03/30 08:03:54;;;;;;;21.50;3.20;;;15.10;98.00;;;;;;5016130;28;20463;-63
2024/03/30 08:06:21;;;;;;;29.00;3.77;;;15.20;98.00;;;;;;5015881;28;20456;-62
2024/03/30 08:08:48;;;;;;;22.83;4.23;;;15.40;98.00;;;;;;5015920;28;20542;-63
2024/03/30 08:11:15;;;;;;;24.07;4.40;;;15.50;98.00;;;;;;5016046;28;20933;-63
2024/03/30 08:13:43;;;;;;;41.30;4.53;;;15.60;98.00;;;;;;5016032;28;20463;-63
2024/03/30 08:16:09;;;;;;;23.40;3.00;;;15.70;98.00;;;;;;5014750;28;20502;-63
2024/03/30 08:18:41;;;;;;;28.00;3.50;;;15.70;98.00;;;;;;5015598;28;20980;-63
2024/03/30 08:21:07;;;;;;;27.50;4.10;;;15.80;98.00;;;;;;5015239;28;20888;-63
2024/03/30 08:23:36;;;;;;;21.50;2.90;;;15.90;98.00;;;;;;5015894;28;20494;-63
2024/03/30 08:26:03;;;;;;;16.33;3.00;;;16.00;98.00;;;;;;5015704;28;20470;-63
2024/03/30 08:28:30;;;;;;;25.87;3.70;;;16.00;98.00;;;;;;5015726;28;20489;-63
2024/03/30 08:30:56;;;;;;;26.17;3.63;;;16.00;98.00;;;;;;5015712;28;20468;-63
2024/03/30 08:33:23;;;;;;;20.97;4.30;;;16.00;98.00;;;;;;5013865;28;20475;-63
2024/03/30 08:35:53;;;;;;;19.80;3.47;;;16.00;98.00;;;;;;5014544;28;20455;-63
2024/03/30 08:38:20;;;;;;;22.43;4.20;;;16.00;98.00;;;;;;5015597;28;20594;-63
2024/03/30 08:40:48;;;;;;;29.47;4.97;;;16.00;98.00;;;;;;5015493;28;20455;-63
2024/03/30 08:43:15;;;;;;;17.23;4.50;;;16.00;98.00;;;;;;5015085;28;20586;-63
2024/03/30 08:45:42;;;;;;;26.43;4.80;;;15.90;98.00;;;;;;5015418;28;20815;-63
2024/03/30 08:48:13;;;;;;;17.97;4.20;;;15.70;98.00;;;;;;5015376;28;20458;-63
2024/03/30 08:50:39;;;;;;;28.47;4.70;;;15.60;98.00;;;;;;5015197;28;20467;-63
2024/03/30 08:53:08;;;;;;;24.70;4.90;;;15.60;98.00;;;;;;5015302;28;20499;-63
2024/03/30 08:55:35;;;;;;;14.60;3.80;;;15.50;98.00;;;;;;5015189;28;20454;-63
2024/03/30 08:58:06;;;;;;;22.20;4.53;;;15.40;98.00;;;;;;5014109;28;20463;-63
2024/03/30 09:00:33;;;;;;;17.40;4.43;;;15.50;98.00;;;;;;5010597;28;20467;-63
2024/03/30 09:03:00;;;;;;;20.20;4.50;;;15.40;98.00;;;;;;4995014;28;20869;-63
2024/03/30 09:05:26;;;;;;;15.67;3.80;;;15.40;98.00;;;;;;4994743;28;20461;-63
2024/03/30 09:07:55;;;;;;;20.40;3.80;;;15.40;98.00;;;;;;4995059;28;20467;-63
2024/03/30 09:10:23;;;;;;;17.47;3.83;;;15.40;98.00;;;;;;4993574;28;20460;-63
2024/03/30 09:12:50;;;;;;;26.23;4.30;;;15.40;98.00;;;;;;5000430;28;21008;-63
2024/03/30 09:15:19;;;;;;;25.87;4.30;;;15.40;98.00;;;;;;5014640;28;20463;-63
2024/03/30 09:17:47;;;;;;;13.17;3.30;;;15.30;98.00;;;;;;5013832;28;21363;-63
2024/03/30 09:20:13;;;;;;;14.60;3.63;;;15.40;98.00;;;;;;5014547;28;20976;-63
2024/03/30 09:22:40;;;;;;;12.93;3.40;;;15.40;98.00;;;;;;5014271;28;20576;-63
2024/03/30 09:25:12;;;;;;;25.43;4.90;;;15.40;98.00;;;;;;5014628;28;20451;-62
2024/03/30 09:27:39;;;;;;;16.03;4.37;;;15.40;98.00;;;;;;5013848;28;20542;-63
2024/03/30 09:30:08;;;;;;;24.33;4.77;;;15.30;98.00;;;;;;5013890;28;20459;-63
2024/03/30 09:32:38;;;;;;;22.53;4.70;;;15.30;98.00;;;;;;5013610;28;20448;-64
2024/03/30 09:35:06;;;;;;;24.70;4.67;;;15.30;98.00;;;;;;5013673;28;20505;-65
2024/03/30 09:37:32;;;;;;;18.10;4.40;;;15.30;98.00;;;;;;5014261;28;20467;-65
2024/03/30 09:39:59;;;;;;;28.57;5.87;;;15.30;98.00;;;;;;5013913;28;20463;-65
2024/03/30 09:42:29;;;;;;;28.93;7.60;;;15.40;98.00;;;;;;5014091;28;20483;-65
2024/03/30 09:44:57;;;;;;;25.73;7.40;;;15.40;98.00;;;;;;5014267;28;20859;-65
2024/03/30 09:47:25;;;;;;;36.30;7.93;;;15.40;98.00;;;;;;5014115;28;20463;-64
2024/03/30 09:49:54;;;;;;;20.33;5.87;;;15.40;98.00;;;;;;5014117;28;20483;-65
2024/03/30 09:52:20;;;;;;;30.30;5.27;;;15.40;98.00;;;;;;5014058;28;20513;-65
2024/03/30 09:54:51;;;;;;;24.13;5.03;;;15.50;98.00;;;;;;5013894;28;20460;-65
2024/03/30 09:57:17;;;;;;;24.07;4.70;;;15.50;98.00;;;;;;5013928;28;20510;-65
2024/03/30 09:59:45;;;;;;;17.67;4.00;;;15.50;98.00;;;;;;5013935;28;20460;-65
2024/03/30 10:02:11;;;;;;;20.07;5.37;;;15.50;98.00;;;;;;5013894;28;20578;-65
2024/03/30 10:04:46;;;;;;;20.33;4.90;;;15.60;98.00;;;;;;5013890;28;20463;-65
2024/03/30 10:07:18;;;;;;;22.20;3.70;;;15.60;98.00;;;;;;5012509;28;20451;-65
2024/03/30 10:09:46;;;;;;;14.00;3.90;;;15.70;98.00;;;;;;5013772;28;20463;-65
2024/03/30 10:12:22;;;;;;;25.90;3.83;;;15.70;98.00;;;;;;5013744;28;20456;-65
2024/03/30 10:14:54;;;;;;;23.27;4.00;;;15.70;98.00;;;;;;5013711;28;20506;-64
2024/03/30 10:17:20;;;;;;;23.77;5.17;;;15.80;98.00;;;;;;5012796;28;20836;-65
2024/03/30 10:19:50;;;;;;;29.67;4.33;;;15.80;98.00;;;;;;5013427;28;20463;-65
2024/03/30 10:22:18;;;;;;;17.53;3.63;;;15.80;98.00;;;;;;5013678;28;20475;-65
2024/03/30 10:24:46;;;;;;;25.37;5.33;;;15.90;98.00;;;;;;5013644;28;20550;-65
2024/03/30 10:27:12;;;;;;;27.53;4.73;;;16.00;98.00;;;;;;5013707;28;21000;-65
2024/03/30 10:29:39;;;;;;;30.37;3.50;;;16.10;98.00;;;;;;5012872;28;20962;-65
2024/03/30 10:32:06;;;;;;;21.53;4.00;;;16.20;98.00;;;;;;5013650;28;20470;-65
2024/03/30 10:34:33;;;;;;;27.83;4.27;;;16.40;98.00;;;;;;5013587;28;20552;-65
2024/03/30 10:36:59;;;;;;;29.13;5.50;;;16.40;98.00;;;;;;5013232;28;20510;-65
2024/03/30 10:39:30;;;;;;;24.60;4.90;;;16.50;98.00;;;;;;5013173;28;20525;-65
2024/03/30 10:41:56;;;;;;;25.60;5.67;;;16.70;98.00;;;;;;5013381;28;20455;-65
2024/03/30 10:44:27;;;;;;;34.87;7.73;;;16.70;98.00;;;;;;5013229;28;20463;-65
2024/03/30 10:46:54;;;;;;;34.37;8.30;;;16.90;98.00;;;;;;5012752;28;20452;-65
2024/03/30 10:49:21;;;;;;;33.30;9.43;;;17.00;98.00;;;;;;5013035;28;20455;-64
2024/03/30 10:51:47;;;;;;;40.33;8.83;;;17.20;98.00;;;;;;5012908;28;20455;-65
2024/03/30 10:54:18;;;;;;;30.47;6.00;;;17.40;98.00;;;;;;5013057;28;20832;-65
2024/03/30 10:56:49;;;;;;;37.50;5.40;;;17.50;98.00;;;;;;5012313;28;20452;-65
2024/03/30 10:59:18;;;;;;;26.77;6.03;;;17.60;98.00;;;;;;5012574;28;20464;-64
2024/03/30 11:01:47;;;;;;;40.03;6.13;;;17.80;98.00;;;;;;5012738;28;20495;-65
2024/03/30 11:04:16;;;;;;;41.33;6.07;;;18.20;98.00;;;;;;5012464;28;20495;-63
2024/03/30 11:06:44;;;;;;;27.30;5.90;;;18.40;98.00;;;;;;5012510;28;20447;-63
2024/03/30 11:09:13;;;;;;;26.73;5.10;;;18.60;98.00;;;;;;5011101;28;20467;-62
2024/03/30 11:11:40;;;;;;;19.23;5.90;;;18.70;98.00;;;;;;5012054;28;20460;-63
2024/03/30 11:14:08;;;;;;;26.30;6.07;;;18.80;98.00;;;;;;5012224;28;20455;-63
2024/03/30 11:16:41;;;;;;;40.57;5.67;;;18.90;98.00;;;;;;5012284;28;20462;-63
2024/03/30 11:19:16;;;;;;;22.23;5.33;;;18.80;98.00;;;;;;5012361;28;20460;-63
2024/03/30 11:21:47;;;;;;;35.80;5.80;;;18.80;98.00;;;;;;5010084;28;20471;-63
2024/03/30 11:24:17;;;;;;;37.67;6.10;;;18.90;98.00;;;;;;5011745;28;20541;-63
2024/03/30 11:26:51;;;;;;;26.93;6.40;;;19.00;98.00;;;;;;5012146;28;20487;-63
2024/03/30 11:29:31;;;;;;;26.90;6.13;;;19.00;98.00;;;;;;5011459;28;20881;-63
2024/03/30 11:32:08;;;;;;;38.77;7.33;;;19.00;98.00;;;;;;5011972;28;20459;-63
2024/03/30 11:34:49;;;;;;;29.10;7.57;;;19.10;98.00;;;;;;5012250;28;20466;-63
2024/03/30 11:37:25;;;;;;;36.87;6.40;;;19.10;98.00;;;;;;5012268;28;20459;-63
2024/03/30 11:40:02;;;;;;;22.80;5.47;;;19.20;98.00;;;;;;5011418;28;20490;-63
2024/03/30 11:42:38;;;;;;;27.17;6.07;;;19.20;98.00;;;;;;5012004;28;20917;-62
2024/03/30 11:45:08;;;;;;;45.17;6.03;;;19.20;98.00;;;;;;5012256;28;20537;-63
2024/03/30 11:47:35;;;;;;;27.70;5.27;;;19.30;98.00;;;;;;5012150;28;20571;-63
2024/03/30 11:50:02;;;;;;;23.33;7.70;;;19.30;98.00;;;;;;5012139;28;20521;-63
2024/03/30 11:52:29;;;;;;;28.40;6.50;;;19.30;98.00;;;;;;5012060;28;20460;-63
2024/03/30 11:54:57;;;;;;;29.67;7.00;;;19.30;98.00;;;;;;5012005;28;20464;-63
2024/03/30 11:57:26;;;;;;;36.73;5.57;;;19.30;98.00;;;;;;5011959;28;20451;-63
2024/03/30 11:59:54;;;;;;;31.60;6.10;;;19.30;98.00;;;;;;5012035;28;20436;-63
2024/03/30 12:02:25;;;;;;;26.13;5.20;;;19.30;98.00;;;;;;5011970;28;20854;-63
2024/03/30 12:05:00;;;;;;;23.47;5.20;;;19.30;98.00;;;;;;5012094;28;20498;-63
2024/03/30 12:07:34;;;;;;;17.23;4.77;;;19.30;98.00;;;;;;5011990;28;20451;-63
2024/03/30 12:10:04;;;;;;;30.20;4.83;;;19.20;98.00;;;;;;5012026;28;20506;-63
2024/03/30 12:12:36;;;;;;;34.77;5.63;;;19.20;98.00;;;;;;5011945;28;20478;-63
2024/03/30 12:15:12;;;;;;;29.73;5.13;;;19.30;98.00;;;;;;5012055;28;20463;-63
2024/03/30 12:17:40;;;;;;;31.30;5.93;;;19.20;98.00;;;;;;5011900;28;20459;-63
2024/03/30 12:20:08;;;;;;;22.30;5.20;;;19.20;98.00;;;;;;5012033;28;20477;-63
2024/03/30 12:22:35;;;;;;;21.20;4.40;;;19.10;98.00;;;;;;5011559;28;20491;-63
2024/03/30 12:25:02;;;;;;;20.53;5.67;;;19.10;98.00;;;;;;5011927;28;20518;-63
2024/03/30 12:27:28;;;;;;;34.80;5.87;;;19.00;98.00;;;;;;5011673;28;20456;-63
2024/03/30 12:29:56;;;;;;;25.80;5.33;;;19.00;98.00;;;;;;5010348;28;20463;-63
2024/03/30 12:32:23;;;;;;;21.30;5.77;;;19.00;98.00;;;;;;5011599;28;20455;-63
2024/03/30 12:34:53;;;;;;;33.80;6.37;;;19.00;98.00;;;;;;5011463;28;20478;-63
2024/03/30 12:37:19;;;;;;;29.97;6.30;;;19.00;98.00;;;;;;5011624;28;20455;-63
2024/03/30 12:39:46;;;;;;;21.20;5.13;;;19.00;98.00;;;;;;5011619;28;21334;-63
2024/03/30 12:42:12;;;;;;;15.53;4.90;;;18.90;98.00;;;;;;5013875;28;20459;-63
2024/03/30 12:44:39;;;;;;;36.77;6.23;;;18.90;98.00;;;;;;5015033;28;20813;-63
2024/03/30 12:47:06;;;;;;;23.53;5.50;;;18.90;98.00;;;;;;5015228;28;20451;-63